createdAt,value
2023-04-23T00:01:58.883Z,25.30
2023-04-23T00:04:28.994Z,23.90
2023-04-23T00:06:58.860Z,23.20
2023-04-23T00:09:31.961Z,22.00
2023-04-23T00:12:01.969Z,24.80
2023-04-23T00:14:29.896Z,19.40
2023-04-23T00:16:57.952Z,22.40
2023-04-23T00:19:25.962Z,22.50
2023-04-23T00:21:53.636Z,23.30
2023-04-23T00:24:21.391Z,21.60
2023-04-23T00:26:49.032Z,24.00
2023-04-23T00:29:16.686Z,23.60
2023-04-23T00:31:44.421Z,23.00
2023-04-23T00:34:12.173Z,21.30
2023-04-23T00:36:39.854Z,17.30
2023-04-23T00:39:07.456Z,16.50
2023-04-23T00:41:35.651Z,18.40
2023-04-23T00:44:04.040Z,21.00
2023-04-23T00:46:31.728Z,15.50
2023-04-23T00:49:00.493Z,17.00
2023-04-23T00:51:32.175Z,18.70
2023-04-23T00:53:59.950Z,15.40
2023-04-23T00:56:28.399Z,16.60
2023-04-23T00:58:56.926Z,17.60
2023-04-23T01:03:54.081Z,16.70
2023-04-23T01:06:25.152Z,19.70
2023-04-23T01:08:52.829Z,15.60
2023-04-23T01:11:20.657Z,19.50
2023-04-23T01:13:48.383Z,18.90
2023-04-23T01:16:16.197Z,18.90
2023-04-23T01:18:44.549Z,19.40
2023-04-23T01:21:15.197Z,15.80
2023-04-23T01:23:43.002Z,14.80
2023-04-23T01:26:10.891Z,16.40
2023-04-23T01:28:39.484Z,19.50
2023-04-23T01:31:07.430Z,16.30
2023-04-23T01:33:36.487Z,20.70
2023-04-23T01:36:04.858Z,16.80
2023-04-23T01:38:36.005Z,18.10
2023-04-23T01:41:03.665Z,21.20
2023-04-23T01:43:32.162Z,17.00
2023-04-23T01:46:00.033Z,19.80
2023-04-23T01:48:27.915Z,18.50
2023-04-23T01:50:56.561Z,17.30
2023-04-23T01:53:24.222Z,20.40
2023-04-23T01:55:52.759Z,18.10
2023-04-23T01:58:20.452Z,19.40
2023-04-23T02:00:48.056Z,17.90
2023-04-23T02:03:16.134Z,16.00
2023-04-23T02:05:44.567Z,18.40
2023-04-23T02:08:12.487Z,16.50
2023-04-23T02:10:40.205Z,17.50
2023-04-23T02:13:07.827Z,19.80
2023-04-23T02:15:38.428Z,18.90
2023-04-23T02:18:06.745Z,18.80
2023-04-23T02:20:38.798Z,19.30
2023-04-23T02:23:08.512Z,17.20
2023-04-23T02:25:38.701Z,16.60
2023-04-23T02:28:08.323Z,20.10
2023-04-23T02:30:36.680Z,15.70
2023-04-23T02:33:05.221Z,17.40
2023-04-23T02:35:32.861Z,17.70
2023-04-23T02:38:00.476Z,15.80
2023-04-23T02:40:28.341Z,16.70
2023-04-23T02:42:55.982Z,15.90
2023-04-23T02:45:23.627Z,18.90
2023-04-23T02:47:53.476Z,17.50
2023-04-23T02:50:21.784Z,19.50
2023-04-23T02:52:49.969Z,19.50
2023-04-23T02:55:17.972Z,17.90
2023-04-23T02:57:45.760Z,17.90
2023-04-23T03:00:15.633Z,20.30
2023-04-23T03:02:43.645Z,16.80
2023-04-23T03:05:12.797Z,18.30
2023-04-23T03:07:40.802Z,19.20
2023-04-23T03:10:08.984Z,17.50
2023-04-23T03:12:36.806Z,20.70
2023-04-23T03:15:05.892Z,21.20
2023-04-23T03:17:33.556Z,20.70
2023-04-23T03:20:01.278Z,17.60
2023-04-23T03:22:28.893Z,18.60
2023-04-23T03:24:56.519Z,22.00
2023-04-23T03:27:24.157Z,22.00
2023-04-23T03:29:51.902Z,21.80
2023-04-23T03:32:19.540Z,20.00
2023-04-23T03:34:47.182Z,17.40
2023-04-23T03:37:14.854Z,22.40
2023-04-23T03:39:42.517Z,20.20
2023-04-23T03:42:10.144Z,22.90
2023-04-23T03:44:37.723Z,21.80
2023-04-23T03:47:05.850Z,17.80
2023-04-23T03:49:33.528Z,19.30
2023-04-23T03:52:01.452Z,18.50
2023-04-23T03:54:29.210Z,19.50
2023-04-23T03:56:57.719Z,19.20
2023-04-23T03:59:25.313Z,22.60
2023-04-23T04:01:52.907Z,20.60
2023-04-23T04:04:20.780Z,18.90
2023-04-23T04:06:48.583Z,19.60
2023-04-23T04:09:17.534Z,18.70
2023-04-23T04:11:45.119Z,17.50
2023-04-23T04:14:13.062Z,19.60
2023-04-23T04:16:40.791Z,20.10
2023-04-23T04:19:08.379Z,17.40
2023-04-23T04:21:36.045Z,19.50
2023-04-23T04:24:07.097Z,19.30
2023-04-23T04:26:34.879Z,16.90
2023-04-23T04:29:02.797Z,21.60
2023-04-23T04:31:31.186Z,17.80
2023-04-23T04:33:59.118Z,18.40
2023-04-23T04:36:27.307Z,21.10
2023-04-23T04:38:58.884Z,22.70
2023-04-23T04:41:27.806Z,18.70
2023-04-23T04:43:55.512Z,21.80
2023-04-23T04:46:23.271Z,20.60
2023-04-23T04:48:50.952Z,19.80
2023-04-23T04:51:18.626Z,21.10
2023-04-23T04:53:46.228Z,19.60
2023-04-23T04:56:13.871Z,18.20
2023-04-23T04:58:41.678Z,16.10
2023-04-23T05:01:09.552Z,24.40
2023-04-23T05:03:37.862Z,16.40
2023-04-23T05:06:06.062Z,18.10
2023-04-23T05:08:33.640Z,18.40
2023-04-23T05:11:02.283Z,21.10
2023-04-23T05:13:30.046Z,19.60
2023-04-23T05:15:57.944Z,21.00
2023-04-23T05:18:25.639Z,21.70
2023-04-23T05:20:53.305Z,19.50
2023-04-23T05:23:20.948Z,19.30
2023-04-23T05:25:48.653Z,18.50
2023-04-23T05:28:16.325Z,18.60
2023-04-23T05:30:44.085Z,20.00
2023-04-23T05:33:12.485Z,18.80
2023-04-23T05:35:40.099Z,21.10
2023-04-23T05:38:07.746Z,17.60
2023-04-23T05:40:35.422Z,17.30
2023-04-23T05:43:03.152Z,17.30
2023-04-23T05:45:30.749Z,18.10
2023-04-23T05:47:58.493Z,20.60
2023-04-23T05:50:26.409Z,20.50
2023-04-23T05:52:54.097Z,18.50
2023-04-23T05:55:23.864Z,17.30
2023-04-23T05:57:51.566Z,18.50
2023-04-23T06:00:19.312Z,17.30
2023-04-23T06:05:16.183Z,18.70
2023-04-23T06:07:44.129Z,15.70
2023-04-23T06:10:12.733Z,17.00
2023-04-23T06:12:42.146Z,15.80
2023-04-23T06:15:11.481Z,13.40
2023-04-23T06:17:39.348Z,14.20
2023-04-23T06:20:09.064Z,17.10
2023-04-23T06:22:36.841Z,13.10
2023-04-23T06:25:05.620Z,16.40
2023-04-23T06:27:33.932Z,13.10
2023-04-23T06:30:01.540Z,12.70
2023-04-23T06:32:29.265Z,15.10
2023-04-23T06:35:01.344Z,20.30
2023-04-23T06:37:31.787Z,10.30
2023-04-23T06:40:00.086Z,14.90
2023-04-23T06:42:27.999Z,13.10
2023-04-23T06:44:59.333Z,13.20
2023-04-23T06:47:27.006Z,10.60
2023-04-23T06:49:54.700Z,11.50
2023-04-23T06:52:22.353Z,13.60
2023-04-23T06:54:50.245Z,10.60
2023-04-23T06:57:17.970Z,13.80
2023-04-23T06:59:45.704Z,13.00
2023-04-23T07:02:13.404Z,12.80
2023-04-23T07:04:42.044Z,11.80
2023-04-23T07:07:10.020Z,11.20
2023-04-23T07:09:37.930Z,10.00
2023-04-23T07:12:05.862Z,11.60
2023-04-23T07:14:33.608Z,11.30
2023-04-23T07:17:01.318Z,14.20
2023-04-23T07:19:29.062Z,10.00
2023-04-23T07:21:56.761Z,9.40
2023-04-23T07:24:26.515Z,11.80
2023-04-23T07:26:54.498Z,9.60
2023-04-23T07:29:22.366Z,10.50
2023-04-23T07:31:50.060Z,8.80
2023-04-23T07:34:17.798Z,15.10
2023-04-23T07:36:45.606Z,11.90
2023-04-23T07:39:13.912Z,8.00
2023-04-23T07:41:41.731Z,8.10
2023-04-23T07:44:09.444Z,11.10
2023-04-23T07:46:37.227Z,10.40
2023-04-23T07:49:04.889Z,9.60
2023-04-23T07:51:32.796Z,9.40
2023-04-23T07:54:00.566Z,9.80
2023-04-23T07:56:28.459Z,7.50
2023-04-23T07:58:58.282Z,9.90
2023-04-23T08:01:26.608Z,11.20
2023-04-23T08:03:59.166Z,9.90
2023-04-23T08:06:29.880Z,8.60
2023-04-23T08:08:58.436Z,7.40
2023-04-23T08:11:26.117Z,8.40
2023-04-23T08:13:53.723Z,9.90
2023-04-23T08:16:21.403Z,10.40
2023-04-23T08:19:03.611Z,8.00
2023-04-23T08:21:33.905Z,8.40
2023-04-23T08:24:03.202Z,7.10
2023-04-23T08:26:31.673Z,8.60
2023-04-23T08:29:00.893Z,9.10
2023-04-23T08:31:29.177Z,7.30
2023-04-23T08:33:57.336Z,8.70
2023-04-23T08:36:26.127Z,10.00
2023-04-23T08:38:53.795Z,9.70
2023-04-23T08:41:27.457Z,10.30
2023-04-23T08:44:25.494Z,11.60
2023-04-23T08:46:54.972Z,9.80
2023-04-23T08:49:22.638Z,11.20
2023-04-23T08:51:54.269Z,11.60
2023-04-23T08:54:27.093Z,8.80
2023-04-23T08:56:59.082Z,10.60
2023-04-23T08:59:29.830Z,5.80
2023-04-23T09:02:00.005Z,8.00
2023-04-23T09:04:28.932Z,7.80
2023-04-23T09:06:57.140Z,6.00
2023-04-23T09:09:29.766Z,8.30
2023-04-23T09:11:58.266Z,8.00
2023-04-23T09:14:26.209Z,6.90
2023-04-23T09:16:54.928Z,9.00
2023-04-23T09:19:25.037Z,5.60
2023-04-23T09:21:52.934Z,8.00
2023-04-23T09:24:25.277Z,9.00
2023-04-23T09:26:54.813Z,10.50
2023-04-23T09:29:24.449Z,6.10
2023-04-23T09:31:55.762Z,9.40
2023-04-23T09:34:25.536Z,7.30
2023-04-23T09:36:54.025Z,11.10
2023-04-23T09:39:24.076Z,7.10
2023-04-23T09:41:54.070Z,5.40
2023-04-23T09:44:23.201Z,6.60
2023-04-23T09:46:51.282Z,7.20
2023-04-23T09:49:19.080Z,5.10
2023-04-23T09:51:49.565Z,6.90
2023-04-23T09:54:23.675Z,12.90
2023-04-23T09:56:57.397Z,8.00
2023-04-23T09:59:46.121Z,7.10
2023-04-23T10:02:15.668Z,7.70
2023-04-23T10:04:43.810Z,9.60
2023-04-23T10:09:45.364Z,7.60
2023-04-23T10:14:49.434Z,7.90
2023-04-23T10:17:17.871Z,9.30
2023-04-23T10:19:46.097Z,7.10
2023-04-23T10:22:19.822Z,10.70
2023-04-23T10:24:56.183Z,6.30
2023-04-23T10:27:44.701Z,8.40
2023-04-23T10:30:17.591Z,7.30
2023-04-23T10:32:49.511Z,8.00
2023-04-23T10:35:17.800Z,8.30
2023-04-23T10:37:48.306Z,4.50
2023-04-23T10:40:24.461Z,8.10
2023-04-23T10:42:52.878Z,8.00
2023-04-23T10:45:25.166Z,7.90
2023-04-23T10:47:57.790Z,5.30
2023-04-23T10:50:30.098Z,7.00
2023-04-23T10:52:58.863Z,5.40
2023-04-23T10:55:30.830Z,6.00
2023-04-23T10:58:08.204Z,6.60
2023-04-23T11:00:46.901Z,8.30
2023-04-23T11:03:44.362Z,5.80
2023-04-23T11:06:19.050Z,7.00
2023-04-23T11:08:54.451Z,6.80
2023-04-23T11:11:40.364Z,6.60
2023-04-23T11:14:16.746Z,7.90
2023-04-23T11:16:45.021Z,6.50
2023-04-23T11:19:13.366Z,7.00
2023-04-23T11:22:04.489Z,9.00
2023-04-23T11:24:37.524Z,11.60
2023-04-23T11:27:08.203Z,7.10
2023-04-23T11:29:39.974Z,5.10
2023-04-23T11:32:13.514Z,9.50
2023-04-23T11:34:46.572Z,8.90
2023-04-23T11:37:16.048Z,8.10
2023-04-23T11:39:45.958Z,7.10
2023-04-23T11:42:15.673Z,7.30
2023-04-23T11:44:45.421Z,7.30
2023-04-23T11:47:16.761Z,7.90
2023-04-23T11:49:45.518Z,7.70
2023-04-23T11:52:14.589Z,6.40
2023-04-23T11:54:42.907Z,7.70
2023-04-23T11:57:10.788Z,6.60
2023-04-23T11:59:38.424Z,6.80
2023-04-23T12:02:06.193Z,7.50
2023-04-23T12:04:34.142Z,7.20
2023-04-23T12:07:04.305Z,5.90
2023-04-23T12:09:36.846Z,5.30
2023-04-23T12:12:04.822Z,5.70
2023-04-23T12:14:33.683Z,5.40
2023-04-23T12:17:11.643Z,8.30
2023-04-23T12:19:40.825Z,12.90
2023-04-23T12:22:08.746Z,8.50
2023-04-23T12:24:51.491Z,6.80
2023-04-23T12:27:22.411Z,6.70
2023-04-23T12:30:00.990Z,6.90
2023-04-23T12:32:28.688Z,5.80
2023-04-23T12:34:57.894Z,5.90
2023-04-23T12:37:29.182Z,8.40
2023-04-23T12:39:59.554Z,6.50
2023-04-23T12:42:27.434Z,7.10
2023-04-23T12:44:58.198Z,4.80
2023-04-23T12:47:26.038Z,9.80
2023-04-23T12:49:55.166Z,6.00
2023-04-23T12:52:22.924Z,6.60
2023-04-23T12:54:56.323Z,6.60
2023-04-23T12:57:24.680Z,5.00
2023-04-23T12:59:54.777Z,6.00
2023-04-23T13:02:25.845Z,5.80
2023-04-23T13:05:00.685Z,6.40
2023-04-23T13:07:28.897Z,6.30
2023-04-23T13:09:57.527Z,6.00
2023-04-23T13:12:25.814Z,8.50
2023-04-23T13:14:53.966Z,9.20
2023-04-23T13:17:23.093Z,5.70
2023-04-23T13:19:50.865Z,5.90
2023-04-23T13:22:18.536Z,5.70
2023-04-23T13:24:46.155Z,5.40
2023-04-23T13:27:14.764Z,9.80
2023-04-23T13:29:42.634Z,7.50
2023-04-23T13:32:10.681Z,5.90
2023-04-23T13:34:38.494Z,5.60
2023-04-23T13:37:09.305Z,7.60
2023-04-23T13:39:41.282Z,7.40
2023-04-23T13:42:11.234Z,5.40
2023-04-23T13:44:38.876Z,5.30
2023-04-23T13:47:06.655Z,5.10
2023-04-23T13:49:34.343Z,7.20
2023-04-23T13:52:06.618Z,5.40
2023-04-23T13:54:35.998Z,7.70
2023-04-23T13:57:04.431Z,13.30
2023-04-23T13:59:32.217Z,6.30
2023-04-23T14:02:00.018Z,6.30
2023-04-23T14:04:27.950Z,7.40
2023-04-23T14:06:55.717Z,6.80
2023-04-23T14:09:23.584Z,6.70
2023-04-23T14:11:51.372Z,5.20
2023-04-23T14:14:19.186Z,5.20
2023-04-23T14:16:46.816Z,6.50
2023-04-23T14:19:14.465Z,6.60
2023-04-23T14:21:42.336Z,5.10
2023-04-23T14:24:22.693Z,6.00
2023-04-23T14:26:50.671Z,5.10
2023-04-23T14:29:37.850Z,6.40
2023-04-23T14:32:06.595Z,6.30
2023-04-23T14:34:35.833Z,10.40
2023-04-23T14:37:04.057Z,6.60
2023-04-23T14:39:31.886Z,6.40
2023-04-23T14:41:59.554Z,9.20
2023-04-23T14:44:27.369Z,6.90
2023-04-23T14:46:56.283Z,7.10
2023-04-23T14:49:24.906Z,7.50
2023-04-23T14:51:58.082Z,5.90
2023-04-23T14:54:25.956Z,6.60
2023-04-23T14:56:53.621Z,7.00
2023-04-23T14:59:21.930Z,8.00
2023-04-23T15:01:49.869Z,6.70
2023-04-23T15:04:19.186Z,8.60
2023-04-23T15:06:47.268Z,7.30
2023-04-23T15:09:14.902Z,6.30
2023-04-23T15:11:43.220Z,7.70
2023-04-23T15:14:32.213Z,8.00
2023-04-23T15:17:00.114Z,7.10
2023-04-23T15:19:28.617Z,7.60
2023-04-23T15:21:56.545Z,9.00
2023-04-23T15:24:24.221Z,6.50
2023-04-23T15:26:54.165Z,7.30
2023-04-23T15:29:24.243Z,7.90
2023-04-23T15:31:57.876Z,9.60
2023-04-23T15:34:25.807Z,6.40
2023-04-23T15:36:53.420Z,8.90
2023-04-23T15:39:21.356Z,9.30
2023-04-23T15:41:49.435Z,7.40
2023-04-23T15:44:18.892Z,7.30
2023-04-23T15:46:46.565Z,6.60
2023-04-23T15:49:14.257Z,8.00
2023-04-23T15:51:42.022Z,6.30
2023-04-23T15:54:09.944Z,9.10
2023-04-23T15:56:37.798Z,8.60
2023-04-23T15:59:06.042Z,8.80
2023-04-23T16:01:33.901Z,8.50
2023-04-23T16:06:32.143Z,6.70
2023-04-23T16:09:01.317Z,7.10
2023-04-23T16:11:29.006Z,9.60
2023-04-23T16:13:57.118Z,7.30
2023-04-23T16:16:24.941Z,8.40
2023-04-23T16:18:53.453Z,8.10
2023-04-23T16:21:21.739Z,8.30
2023-04-23T16:23:49.545Z,7.10
2023-04-23T16:26:17.279Z,8.10
2023-04-23T16:28:51.976Z,8.10
2023-04-23T16:31:28.933Z,7.40
2023-04-23T16:33:56.786Z,7.80
2023-04-23T16:36:24.782Z,11.10
2023-04-23T16:38:52.519Z,11.10
2023-04-23T16:41:20.633Z,9.80
2023-04-23T16:43:48.346Z,7.10
2023-04-23T16:46:16.343Z,7.00
2023-04-23T16:48:45.098Z,7.10
2023-04-23T16:51:12.962Z,8.00
2023-04-23T16:53:40.712Z,8.80
2023-04-23T16:56:08.674Z,10.20
2023-04-23T16:58:36.437Z,10.70
2023-04-23T17:01:04.159Z,9.10
2023-04-23T17:03:33.539Z,8.70
2023-04-23T17:06:30.713Z,8.60
2023-04-23T17:09:03.178Z,10.60
2023-04-23T17:11:32.031Z,8.10
2023-04-23T17:13:59.592Z,10.30
2023-04-23T17:16:27.512Z,8.20
2023-04-23T17:18:55.920Z,10.00
2023-04-23T17:21:24.187Z,8.40
2023-04-23T17:23:51.926Z,11.20
2023-04-23T17:26:19.721Z,10.60
2023-04-23T17:28:47.393Z,13.50
2023-04-23T17:31:16.474Z,14.00
2023-04-23T17:33:45.566Z,17.00
2023-04-23T17:36:13.372Z,19.60
2023-04-23T17:38:41.299Z,19.00
2023-04-23T17:41:08.933Z,14.60
2023-04-23T17:43:36.611Z,14.00
2023-04-23T17:46:04.556Z,17.30
2023-04-23T17:48:32.395Z,18.90
2023-04-23T17:51:00.134Z,21.20
2023-04-23T17:53:27.914Z,25.40
2023-04-23T17:55:59.614Z,22.50
2023-04-23T17:58:27.350Z,19.10
2023-04-23T18:00:55.763Z,20.80
2023-04-23T18:03:23.849Z,23.00
2023-04-23T18:05:52.068Z,23.60
2023-04-23T18:08:21.308Z,21.50
2023-04-23T18:10:49.413Z,19.80
2023-04-23T18:13:18.320Z,20.80
2023-04-23T18:15:49.967Z,19.10
2023-04-23T18:18:19.228Z,18.00
2023-04-23T18:20:47.518Z,14.90
2023-04-23T18:23:15.463Z,15.80
2023-04-23T18:25:43.119Z,13.70
2023-04-23T18:28:11.386Z,16.70
2023-04-23T18:30:39.174Z,18.90
2023-04-23T18:33:26.001Z,14.70
2023-04-23T18:35:59.446Z,15.30
2023-04-23T18:38:44.963Z,18.80
2023-04-23T18:41:12.748Z,26.10
2023-04-23T18:43:40.460Z,22.70
2023-04-23T18:46:08.308Z,22.50
2023-04-23T18:48:35.892Z,21.00
2023-04-23T18:51:13.199Z,19.90
2023-04-23T18:53:41.224Z,17.20
2023-04-23T18:56:09.295Z,17.90
2023-04-23T18:58:36.947Z,18.00
2023-04-23T19:01:04.886Z,14.90
2023-04-23T19:03:32.707Z,17.20
2023-04-23T19:06:00.644Z,14.90
2023-04-23T19:08:28.882Z,13.40
2023-04-23T19:10:57.528Z,13.80
2023-04-23T19:13:25.333Z,15.70
2023-04-23T19:15:53.268Z,15.00
2023-04-23T19:18:22.131Z,14.70
2023-04-23T19:20:50.801Z,13.10
2023-04-23T19:23:19.656Z,15.60
2023-04-23T19:25:48.140Z,17.70
2023-04-23T19:28:15.889Z,19.00
2023-04-23T19:30:43.664Z,18.20
2023-04-23T19:33:12.066Z,18.30
2023-04-23T19:35:40.520Z,20.80
2023-04-23T19:38:09.427Z,20.40
2023-04-23T19:40:37.386Z,18.90
2023-04-23T19:43:05.293Z,19.10
2023-04-23T19:45:33.843Z,17.60
2023-04-23T19:48:04.610Z,19.80
2023-04-23T19:50:32.717Z,23.10
2023-04-23T19:53:00.843Z,22.70
2023-04-23T19:55:28.604Z,22.50
2023-04-23T19:57:57.339Z,23.10
2023-04-23T20:00:29.975Z,22.20
2023-04-23T20:02:58.206Z,20.10
2023-04-23T20:05:26.093Z,20.20
2023-04-23T20:07:53.764Z,21.20
2023-04-23T20:10:21.949Z,15.60
2023-04-23T20:12:49.569Z,16.20
2023-04-23T20:15:17.324Z,15.00
2023-04-23T20:17:45.997Z,18.40
2023-04-23T20:20:13.912Z,15.70
2023-04-23T20:22:41.505Z,18.10
2023-04-23T20:25:10.081Z,16.10
2023-04-23T20:27:37.798Z,17.00
2023-04-23T20:30:10.496Z,16.30
2023-04-23T20:32:38.212Z,26.80
2023-04-23T20:35:06.524Z,50.60
2023-04-23T20:37:34.899Z,62.10
2023-04-23T20:40:03.389Z,38.90
2023-04-23T20:42:31.085Z,25.40
2023-04-23T20:44:58.721Z,37.00
2023-04-23T20:47:27.941Z,69.20
2023-04-23T20:49:55.682Z,78.00
2023-04-23T20:52:23.479Z,46.30
2023-04-23T20:54:51.080Z,66.70
2023-04-23T20:57:18.724Z,32.30
2023-04-23T20:59:46.334Z,24.40
2023-04-23T21:02:15.168Z,79.00
2023-04-23T21:04:43.438Z,57.90
2023-04-23T21:07:11.467Z,41.90
2023-04-23T21:09:39.142Z,63.50
2023-04-23T21:12:07.318Z,55.00
2023-04-23T21:14:35.426Z,41.20
2023-04-23T21:17:03.189Z,39.50
2023-04-23T21:19:30.785Z,46.70
2023-04-23T21:21:58.422Z,31.70
2023-04-23T21:24:26.086Z,27.40
2023-04-23T21:26:53.786Z,24.60
2023-04-23T21:29:21.376Z,23.80
2023-04-23T21:31:52.398Z,26.70
2023-04-23T21:34:21.496Z,37.70
2023-04-23T21:36:49.834Z,30.90
2023-04-23T21:39:17.560Z,26.40
2023-04-23T21:41:46.729Z,29.10
2023-04-23T21:44:14.510Z,25.10
2023-04-23T21:46:43.232Z,22.90
2023-04-23T21:49:11.448Z,20.30
2023-04-23T21:51:41.106Z,23.00
2023-04-23T21:54:09.264Z,23.80
2023-04-23T21:56:37.120Z,36.40
2023-04-23T21:59:04.914Z,32.60
2023-04-23T22:01:35.061Z,42.00
2023-04-23T22:04:04.788Z,37.60
2023-04-23T22:06:34.397Z,27.20
2023-04-23T22:09:02.421Z,22.90
2023-04-23T22:11:31.383Z,25.70
2023-04-23T22:14:00.152Z,42.90
2023-04-23T22:16:29.137Z,27.30
2023-04-23T22:18:57.673Z,38.70
2023-04-23T22:21:25.537Z,45.00
2023-04-23T22:23:53.182Z,39.00
2023-04-23T22:26:21.744Z,34.10
2023-04-23T22:28:49.618Z,32.20
2023-04-23T22:31:18.492Z,29.50
2023-04-23T22:33:46.303Z,29.80
2023-04-23T22:36:14.251Z,28.40
2023-04-23T22:38:41.990Z,24.20
2023-04-23T22:41:09.754Z,22.40
2023-04-23T22:43:37.384Z,21.20
2023-04-23T22:46:05.249Z,22.00
2023-04-23T22:48:33.366Z,19.70
2023-04-23T22:51:02.184Z,21.10
2023-04-23T22:53:31.228Z,18.00
2023-04-23T22:55:58.855Z,21.20
2023-04-23T22:58:26.535Z,20.00
2023-04-23T23:00:55.706Z,21.90
2023-04-23T23:03:23.521Z,21.60
2023-04-23T23:05:51.310Z,22.30
2023-04-23T23:08:18.976Z,21.40
2023-04-23T23:10:46.679Z,22.40
2023-04-23T23:13:14.269Z,23.30
2023-04-23T23:15:41.980Z,19.00
2023-04-23T23:18:09.697Z,19.80
2023-04-23T23:20:37.440Z,17.70
2023-04-23T23:23:05.681Z,18.90
2023-04-23T23:25:33.749Z,21.40
2023-04-23T23:28:01.368Z,19.80
2023-04-23T23:30:28.991Z,21.30
2023-04-23T23:32:57.500Z,16.80
2023-04-23T23:35:25.089Z,20.20
2023-04-23T23:37:52.865Z,13.70
2023-04-23T23:40:20.548Z,14.90
2023-04-23T23:42:48.137Z,15.50
2023-04-23T23:45:15.854Z,14.80
2023-04-23T23:47:43.542Z,15.50
2023-04-23T23:50:11.393Z,14.10
2023-04-23T23:52:38.996Z,21.10
2023-04-23T23:55:07.396Z,16.00
2023-04-23T23:57:35.076Z,15.90
